Startpagina
METAR-TAF:

METAR-TAF

Vliegvelden :

Maputo, Mozambique

Luchthaven Maputo

breedte: 25-55S, lengte: 032-34E, hoogte: 39 m

Actueel weer

Dit bericht is 11 minuten geleden gemaakt, om 19:00 UTC
Wind 5 kt uit het zuidzuidwesten
Temperatuur 22°C
Vochtigheid 69%
Druk 1025 hPa
Zicht 10 km of meer
Geheel bewolkt op 2000 ft

METAR: FQMA 211900Z 20005KT 9999 OVC020 22/16 Q1025 NOSIG

Tijdstip: 21:11 (19:11 UTC)

Verwachting

Dit bericht is 27 uur en het 11 minuten geleden gemaakt, om 16:00 UTC
Verwachting geldig van 20 om 18 UTC tot 21 om 24 UTC
Wind 10 kt uit het zuidzuidwesten
Zicht 10 km of meer
Gebroken wolken op 2000 ft
Wijzigt naar
van 21 om 06 UTC tot 21 om 08 UTC
Wind 12 kt uit het zuidoosten
Wijzigt naar
van 21 om 12 UTC tot 21 om 14 UTC
Wind 12 kt uit het zuidzuidoosten met uitschieters tot 22 kt
Wijzigt naar
van 21 om 18 UTC tot 21 om 20 UTC
Wind 10 kt uit het zuidwesten

TAF: FQMA 201600Z 2018/2124 21010KT 9999 BKN020 BECMG 2106/2108 13012KT BECMG 2112/2114 16012G22KT BECMG 2118/2120 23010KT TN16/2102Z TX27/2112Z

Waarnemingen en weersverwachtingen van meer dan 4000 vliegvelden (METAR en TAF).

De beschikbare stations zijn de gele en rode punten op de kaart.

Ga met uw muis naar het station om de naam te zien.

Klik dan om waarnemingen en weersverwachtingen te zien.

kaart wijzigen: klik op de groene knoppen met een zwart kruis om in te zoomen, op de groene knop met een streepje om uit te zoomen of op de groene pijlen voor aangrenzende kaarten.


METAR-TAF: